createdAt,value
2022-08-14T00:01:54.541Z,52.10
2022-08-14T00:04:34.521Z,52.20
2022-08-14T00:07:11.382Z,52.30
2022-08-14T00:09:55.968Z,52.50
2022-08-14T00:12:33.459Z,52.60
2022-08-14T00:15:15.190Z,52.70
2022-08-14T00:17:48.197Z,52.90
2022-08-14T00:20:23.920Z,52.90
2022-08-14T00:22:57.391Z,53.10
2022-08-14T00:25:41.443Z,53.10
2022-08-14T00:28:14.969Z,53.20
2022-08-14T00:30:45.386Z,53.30
2022-08-14T00:33:16.077Z,53.30
2022-08-14T00:36:36.429Z,53.40
2022-08-14T00:38:32.198Z,53.50
2022-08-14T00:41:04.581Z,53.60
2022-08-14T00:43:32.513Z,53.70
2022-08-14T00:46:05.153Z,53.60
2022-08-14T00:48:36.925Z,53.60
2022-08-14T00:51:07.652Z,53.70
2022-08-14T00:53:34.927Z,53.70
2022-08-14T00:56:07.096Z,53.70
2022-08-14T00:58:44.875Z,53.60
2022-08-14T01:01:16.686Z,53.60
2022-08-14T01:03:45.285Z,53.70
2022-08-14T01:06:16.929Z,53.80
2022-08-14T01:08:51.934Z,53.90
2022-08-14T01:11:25.464Z,53.90
2022-08-14T01:14:01.332Z,53.90
2022-08-14T01:16:32.299Z,54.10
2022-08-14T01:19:19.753Z,54.10
2022-08-14T01:21:52.889Z,54.10
2022-08-14T01:24:28.940Z,54.20
2022-08-14T01:27:00.591Z,54.40
2022-08-14T01:29:48.672Z,54.50
2022-08-14T01:32:22.809Z,54.60
2022-08-14T01:35:19.345Z,54.70
2022-08-14T01:37:56.472Z,54.70
2022-08-14T01:40:36.281Z,54.80
2022-08-14T01:43:14.658Z,54.80
2022-08-14T01:45:48.770Z,54.80
2022-08-14T01:48:20.926Z,55.00
2022-08-14T01:50:48.086Z,55.00
2022-08-14T01:53:17.789Z,55.10
2022-08-14T01:55:44.821Z,55.10
2022-08-14T01:58:19.924Z,55.30
2022-08-14T02:00:55.559Z,55.40
2022-08-14T02:03:30.934Z,55.40
2022-08-14T02:06:31.843Z,55.50
2022-08-14T02:08:53.416Z,55.50
2022-08-14T02:11:24.424Z,55.60
2022-08-14T02:13:53.010Z,55.70
2022-08-14T02:16:26.245Z,55.70
2022-08-14T02:18:56.865Z,55.70
2022-08-14T02:21:27.308Z,55.70
2022-08-14T02:23:55.379Z,55.80
2022-08-14T02:28:18.796Z,55.90
2022-08-14T02:29:25.383Z,56.00
2022-08-14T02:32:30.023Z,56.00
2022-08-14T02:35:00.691Z,56.10
2022-08-14T02:37:48.202Z,56.20
2022-08-14T02:40:15.691Z,56.30
2022-08-14T02:42:55.286Z,56.30
2022-08-14T02:45:38.576Z,56.40
2022-08-14T02:49:03.483Z,56.40
2022-08-14T02:51:09.077Z,56.40
2022-08-14T02:53:38.366Z,56.50
2022-08-14T02:56:30.411Z,56.50
2022-08-14T02:59:01.904Z,56.60
2022-08-14T03:01:43.412Z,56.70
2022-08-14T03:04:12.687Z,56.70
2022-08-14T03:06:57.690Z,56.80
2022-08-14T03:09:42.080Z,56.90
2022-08-14T03:12:26.961Z,57.00
2022-08-14T03:14:58.741Z,57.00
2022-08-14T03:17:26.930Z,57.10
2022-08-14T03:19:59.154Z,57.20
2022-08-14T03:22:29.981Z,57.20
2022-08-14T03:24:57.013Z,57.30
2022-08-14T03:27:26.400Z,57.40
2022-08-14T03:30:05.440Z,57.40
2022-08-14T03:32:35.600Z,57.50
2022-08-14T03:35:08.944Z,57.60
2022-08-14T03:39:08.487Z,57.70
2022-08-14T03:40:25.239Z,57.90
2022-08-14T03:42:52.282Z,57.90
2022-08-14T03:45:33.713Z,58.00
2022-08-14T03:48:30.391Z,58.10
2022-08-14T03:50:59.573Z,58.20
2022-08-14T03:53:28.610Z,58.20
2022-08-14T03:55:59.068Z,58.30
2022-08-14T03:58:36.155Z,58.30
2022-08-14T04:01:04.312Z,58.50
2022-08-14T04:03:34.412Z,58.50
2022-08-14T04:06:05.790Z,58.60
2022-08-14T04:08:37.772Z,58.70
2022-08-14T04:11:07.822Z,58.80
2022-08-14T04:13:42.388Z,58.90
2022-08-14T04:16:21.224Z,59.00
2022-08-14T04:18:57.864Z,59.00
2022-08-14T04:21:29.330Z,59.10
2022-08-14T04:23:59.414Z,59.20
2022-08-14T04:26:42.248Z,59.20
2022-08-14T04:29:14.978Z,59.20
2022-08-14T04:32:57.771Z,59.30
2022-08-14T04:34:30.163Z,59.30
2022-08-14T04:37:17.553Z,59.30
2022-08-14T04:40:08.563Z,59.40
2022-08-14T04:42:54.598Z,59.40
2022-08-14T04:45:29.748Z,59.40
2022-08-14T04:48:39.533Z,59.50
2022-08-14T04:51:05.343Z,59.50
2022-08-14T04:53:35.321Z,59.60
2022-08-14T04:56:10.830Z,59.70
2022-08-14T04:59:03.725Z,59.80
2022-08-14T05:01:33.991Z,59.90
2022-08-14T05:04:08.783Z,60.00
2022-08-14T05:06:43.182Z,60.00
2022-08-14T05:09:13.882Z,60.10
2022-08-14T05:11:42.480Z,60.10
2022-08-14T05:14:34.017Z,60.20
2022-08-14T05:17:02.052Z,60.40
2022-08-14T05:19:32.002Z,60.50
2022-08-14T05:22:15.850Z,60.60
2022-08-14T05:24:48.515Z,60.70
2022-08-14T05:27:19.979Z,60.70
2022-08-14T05:29:56.958Z,60.70
2022-08-14T05:32:27.543Z,60.70
2022-08-14T05:34:58.011Z,60.90
2022-08-14T05:37:27.258Z,60.90
2022-08-14T05:39:55.460Z,61.10
2022-08-14T05:42:29.375Z,61.30
2022-08-14T05:44:59.056Z,61.40
2022-08-14T05:47:29.094Z,61.50
2022-08-14T05:50:17.371Z,61.60
2022-08-14T05:52:48.197Z,61.60
2022-08-14T05:55:16.747Z,61.70
2022-08-14T05:58:05.382Z,61.60
2022-08-14T06:00:40.117Z,61.60
2022-08-14T06:03:10.046Z,61.70
2022-08-14T06:05:38.597Z,61.70
2022-08-14T06:08:08.716Z,61.70
2022-08-14T06:11:02.784Z,61.80
2022-08-14T06:13:44.448Z,62.00
2022-08-14T06:16:12.198Z,62.00
2022-08-14T06:18:40.000Z,62.00
2022-08-14T06:21:12.950Z,62.00
2022-08-14T06:23:40.721Z,62.00
2022-08-14T06:26:08.754Z,62.20
2022-08-14T06:28:37.360Z,62.30
2022-08-14T06:31:07.972Z,62.50
2022-08-14T06:35:02.259Z,62.70
2022-08-14T06:36:22.000Z,62.70
2022-08-14T06:38:50.799Z,62.90
2022-08-14T06:41:20.692Z,63.20
2022-08-14T06:43:58.642Z,63.30
2022-08-14T06:46:34.135Z,63.40
2022-08-14T06:49:04.003Z,63.40
2022-08-14T06:51:38.902Z,63.60
2022-08-14T06:54:15.202Z,64.00
2022-08-14T06:56:44.464Z,64.30
2022-08-14T06:59:21.613Z,64.40
2022-08-14T07:02:13.376Z,64.50
2022-08-14T07:05:05.292Z,64.70
2022-08-14T07:07:40.170Z,64.90
2022-08-14T07:10:16.703Z,64.80
2022-08-14T07:13:02.188Z,65.00
2022-08-14T07:15:33.919Z,65.40
2022-08-14T07:18:02.517Z,65.60
2022-08-14T07:20:31.728Z,65.50
2022-08-14T07:23:07.434Z,64.90
2022-08-14T07:25:39.533Z,64.60
2022-08-14T07:28:20.855Z,64.20
2022-08-14T07:30:51.259Z,63.90
2022-08-14T07:33:24.574Z,63.60
2022-08-14T07:35:58.345Z,63.00
2022-08-14T07:38:32.070Z,62.20
2022-08-14T07:41:06.979Z,60.90
2022-08-14T07:43:44.174Z,60.00
2022-08-14T07:46:21.179Z,59.60
2022-08-14T07:48:56.957Z,59.80
2022-08-14T07:51:24.390Z,59.60
2022-08-14T07:53:57.261Z,59.20
2022-08-14T07:56:47.695Z,58.80
2022-08-14T07:59:12.750Z,58.40
2022-08-14T08:01:51.408Z,58.00
2022-08-14T08:04:24.455Z,57.70
2022-08-14T08:06:53.206Z,57.30
2022-08-14T08:09:31.840Z,56.90
2022-08-14T08:12:04.590Z,56.50
2022-08-14T08:14:56.317Z,56.20
2022-08-14T08:17:24.322Z,56.10
2022-08-14T08:19:51.860Z,56.00
2022-08-14T08:22:21.339Z,55.60
2022-08-14T08:24:50.325Z,55.40
2022-08-14T08:27:22.322Z,55.00
2022-08-14T08:29:51.271Z,54.90
2022-08-14T08:32:18.686Z,54.70
2022-08-14T08:34:47.168Z,54.90
2022-08-14T08:37:15.251Z,54.50
2022-08-14T08:40:01.926Z,53.90
2022-08-14T08:42:38.225Z,53.50
2022-08-14T08:45:11.769Z,53.20
2022-08-14T08:47:43.171Z,52.80
2022-08-14T08:53:08.830Z,51.30
2022-08-14T08:55:43.658Z,50.80
2022-08-14T08:58:20.013Z,50.20
2022-08-14T09:00:54.104Z,49.50
2022-08-14T09:03:27.264Z,48.70
2022-08-14T09:05:59.694Z,48.80
2022-08-14T09:08:31.719Z,48.30
2022-08-14T09:11:02.957Z,48.30
2022-08-14T09:13:48.782Z,48.30
2022-08-14T09:16:24.809Z,48.20
2022-08-14T09:18:53.228Z,47.30
2022-08-14T09:21:24.399Z,46.80
2022-08-14T09:24:28.337Z,46.90
2022-08-14T09:26:43.165Z,46.80
2022-08-14T09:29:11.587Z,46.60
2022-08-14T09:31:49.120Z,46.10
2022-08-14T09:34:58.277Z,45.50
2022-08-14T09:37:44.133Z,45.40
2022-08-14T09:40:55.250Z,45.00
2022-08-14T09:43:52.019Z,44.10
2022-08-14T09:46:21.097Z,44.20
2022-08-14T09:49:01.662Z,44.40
2022-08-14T09:51:32.768Z,44.50
2022-08-14T09:54:18.429Z,43.30
2022-08-14T09:56:57.315Z,42.60
2022-08-14T09:59:28.296Z,42.20
2022-08-14T10:01:59.749Z,42.50
2022-08-14T10:04:33.818Z,42.40
2022-08-14T10:07:08.507Z,42.30
2022-08-14T10:09:57.743Z,42.10
2022-08-14T10:12:44.962Z,41.60
2022-08-14T10:15:20.725Z,41.30
2022-08-14T10:17:49.766Z,41.00
2022-08-14T10:20:40.451Z,40.70
2022-08-14T10:23:18.014Z,40.30
2022-08-14T10:25:52.916Z,40.60
2022-08-14T10:28:39.478Z,39.40
2022-08-14T10:31:44.934Z,39.40
2022-08-14T10:34:18.589Z,39.40
2022-08-14T10:36:50.202Z,38.80
2022-08-14T10:39:29.976Z,38.80
2022-08-14T10:42:18.190Z,38.80
2022-08-14T10:44:52.353Z,38.70
2022-08-14T10:47:39.437Z,39.20
2022-08-14T10:50:07.844Z,38.80
2022-08-14T10:52:43.514Z,38.90
2022-08-14T10:55:14.251Z,38.80
2022-08-14T10:57:52.476Z,38.70
2022-08-14T11:00:35.015Z,37.90
2022-08-14T11:03:07.842Z,37.80
2022-08-14T11:05:47.910Z,37.20
2022-08-14T11:08:16.815Z,37.60
2022-08-14T11:10:56.681Z,37.50
2022-08-14T11:13:27.336Z,37.30
2022-08-14T11:16:00.605Z,37.00
2022-08-14T11:18:32.160Z,36.50
2022-08-14T11:21:06.750Z,36.60
2022-08-14T11:23:38.266Z,36.70
2022-08-14T11:26:08.232Z,36.90
2022-08-14T11:28:46.420Z,37.00
2022-08-14T11:31:22.236Z,36.80
2022-08-14T11:33:58.246Z,36.70
2022-08-14T11:36:35.314Z,36.10
2022-08-14T11:39:35.091Z,36.00
2022-08-14T11:42:56.511Z,35.50
2022-08-14T11:45:04.793Z,34.40
2022-08-14T11:48:10.618Z,35.00
2022-08-14T11:50:36.930Z,35.40
2022-08-14T11:53:05.240Z,35.10
2022-08-14T11:55:36.122Z,34.40
2022-08-14T11:58:11.189Z,34.60
2022-08-14T12:00:53.778Z,35.10
2022-08-14T12:03:37.805Z,35.10
2022-08-14T12:06:29.460Z,34.70
2022-08-14T12:09:01.110Z,34.60
2022-08-14T12:11:43.310Z,34.50
2022-08-14T12:14:13.490Z,34.50
2022-08-14T12:17:12.203Z,34.00
2022-08-14T12:19:56.758Z,33.80
2022-08-14T12:22:34.530Z,33.40
2022-08-14T12:25:08.495Z,33.40
2022-08-14T12:27:53.910Z,33.60
2022-08-14T12:30:44.555Z,33.60
2022-08-14T12:33:26.897Z,33.10
2022-08-14T12:36:00.669Z,32.80
2022-08-14T12:38:43.362Z,33.20
2022-08-14T12:41:21.846Z,33.30
2022-08-14T12:44:01.900Z,33.40
2022-08-14T12:46:35.213Z,33.40
2022-08-14T12:49:11.751Z,33.30
2022-08-14T12:51:55.349Z,33.40
2022-08-14T12:54:28.537Z,33.30
2022-08-14T12:57:20.198Z,33.40
2022-08-14T12:59:49.552Z,33.30
2022-08-14T13:02:26.428Z,33.10
2022-08-14T13:04:56.536Z,33.10
2022-08-14T13:07:26.790Z,32.80
2022-08-14T13:10:00.641Z,32.90
2022-08-14T13:13:11.991Z,32.80
2022-08-14T13:15:38.354Z,33.00
2022-08-14T13:18:10.590Z,32.70
2022-08-14T13:20:44.156Z,32.80
2022-08-14T13:23:20.104Z,32.90
2022-08-14T13:25:59.350Z,32.40
2022-08-14T13:28:33.704Z,32.60
2022-08-14T13:31:09.075Z,32.50
2022-08-14T13:33:40.816Z,32.50
2022-08-14T13:36:23.851Z,32.70
2022-08-14T13:38:53.303Z,32.90
2022-08-14T13:41:31.421Z,32.90
2022-08-14T13:43:59.977Z,33.50
2022-08-14T13:46:27.872Z,33.20
2022-08-14T13:48:55.055Z,33.30
2022-08-14T13:51:26.205Z,33.50
2022-08-14T13:54:10.289Z,33.70
2022-08-14T13:56:40.719Z,33.80
2022-08-14T13:59:08.614Z,34.10
2022-08-14T14:01:43.580Z,34.00
2022-08-14T14:04:19.512Z,33.60
2022-08-14T14:06:52.137Z,33.50
2022-08-14T14:09:37.455Z,33.30
2022-08-14T14:12:37.306Z,33.40
2022-08-14T14:15:09.517Z,33.30
2022-08-14T14:17:38.844Z,33.40
2022-08-14T14:20:15.170Z,33.40
2022-08-14T14:23:02.806Z,33.70
2022-08-14T14:25:45.668Z,33.70
2022-08-14T14:28:17.196Z,33.80
2022-08-14T14:30:56.971Z,33.80
2022-08-14T14:33:46.517Z,33.70
2022-08-14T14:36:25.035Z,33.70
2022-08-14T14:39:04.545Z,33.60
2022-08-14T14:41:37.951Z,33.50
2022-08-14T14:44:16.510Z,33.80
2022-08-14T14:46:50.034Z,33.70
2022-08-14T14:49:22.061Z,34.00
2022-08-14T14:51:53.159Z,34.40
2022-08-14T14:54:30.811Z,34.80
2022-08-14T14:57:03.539Z,34.90
2022-08-14T14:59:35.923Z,34.90
2022-08-14T15:02:06.382Z,35.10
2022-08-14T15:04:43.699Z,35.30
2022-08-14T15:07:12.335Z,34.90
2022-08-14T15:09:39.855Z,34.90
2022-08-14T15:12:27.894Z,35.00
2022-08-14T15:14:58.194Z,35.10
2022-08-14T15:17:41.096Z,35.10
2022-08-14T15:20:17.461Z,35.10
2022-08-14T15:22:57.858Z,35.00
2022-08-14T15:25:24.882Z,35.10
2022-08-14T15:27:54.568Z,35.20
2022-08-14T15:30:23.947Z,35.50
2022-08-14T15:32:53.106Z,35.70
2022-08-14T15:35:22.723Z,35.70
2022-08-14T15:37:55.646Z,35.80
2022-08-14T15:40:23.649Z,35.90
2022-08-14T15:42:51.194Z,36.10
2022-08-14T15:45:19.064Z,36.10
2022-08-14T15:47:45.989Z,36.20
2022-08-14T15:50:19.517Z,36.00
2022-08-14T15:52:46.835Z,36.00
2022-08-14T15:55:16.137Z,36.20
2022-08-14T15:58:01.405Z,36.50
2022-08-14T16:00:51.961Z,36.70
2022-08-14T16:03:24.835Z,36.70
2022-08-14T16:05:53.990Z,36.90
2022-08-14T16:08:26.842Z,36.90
2022-08-14T16:10:58.357Z,37.00
2022-08-14T16:13:39.856Z,37.10
2022-08-14T16:16:48.005Z,37.10
2022-08-14T16:19:11.029Z,37.20
2022-08-14T16:22:01.269Z,37.30
2022-08-14T16:24:35.899Z,37.20
2022-08-14T16:27:38.928Z,37.00
2022-08-14T16:30:25.379Z,36.90
2022-08-14T16:32:57.405Z,36.50
2022-08-14T16:35:42.801Z,36.60
2022-08-14T16:38:45.853Z,36.70
2022-08-14T16:41:23.069Z,37.00
2022-08-14T16:44:02.611Z,37.10
2022-08-14T16:46:43.689Z,37.00
2022-08-14T16:49:13.130Z,37.20
2022-08-14T16:51:41.287Z,37.50
2022-08-14T16:54:34.193Z,37.60
2022-08-14T16:57:22.508Z,37.60
2022-08-14T16:59:57.135Z,37.50
2022-08-14T17:02:41.779Z,37.70
2022-08-14T17:05:27.008Z,37.80
2022-08-14T17:08:28.325Z,37.90
2022-08-14T17:10:52.264Z,38.20
2022-08-14T17:13:27.029Z,38.40
2022-08-14T17:16:25.095Z,38.50
2022-08-14T17:19:00.609Z,38.40
2022-08-14T17:21:38.040Z,38.50
2022-08-14T17:24:57.756Z,38.60
2022-08-14T17:26:59.872Z,38.70
2022-08-14T17:32:55.849Z,39.10
2022-08-14T17:35:58.694Z,39.30
2022-08-14T17:38:33.657Z,39.70
2022-08-14T17:41:22.431Z,40.00
2022-08-14T17:43:55.010Z,40.70
2022-08-14T17:46:43.936Z,41.80
2022-08-14T17:49:16.489Z,42.90
2022-08-14T17:52:16.695Z,43.50
2022-08-14T17:55:00.705Z,44.40
2022-08-14T17:57:35.334Z,45.20
2022-08-14T18:00:14.630Z,46.00
2022-08-14T18:02:50.965Z,46.70
2022-08-14T18:05:23.676Z,47.10
2022-08-14T18:08:32.152Z,47.80
2022-08-14T18:10:56.809Z,48.20
2022-08-14T18:13:50.718Z,48.50
2022-08-14T18:16:20.277Z,48.50
2022-08-14T18:18:51.135Z,48.40
2022-08-14T18:21:42.049Z,48.40
2022-08-14T18:24:27.908Z,48.60
2022-08-14T18:27:08.676Z,48.70
2022-08-14T18:29:54.691Z,48.80
2022-08-14T18:32:31.633Z,49.00
2022-08-14T18:35:11.352Z,49.20
2022-08-14T18:37:42.061Z,49.30
2022-08-14T18:40:28.366Z,49.40
2022-08-14T18:43:03.396Z,49.60
2022-08-14T18:45:42.978Z,49.80
2022-08-14T18:48:19.722Z,49.90
2022-08-14T18:51:02.686Z,50.20
2022-08-14T18:53:34.303Z,50.30
2022-08-14T18:56:09.483Z,50.50
2022-08-14T18:58:57.310Z,50.60
2022-08-14T19:01:30.104Z,50.90
2022-08-14T19:04:00.033Z,51.00
2022-08-14T19:06:40.120Z,51.20
2022-08-14T19:09:08.539Z,51.50
2022-08-14T19:11:35.515Z,51.50
2022-08-14T19:14:04.906Z,51.60
2022-08-14T19:16:35.574Z,51.80
2022-08-14T19:19:06.870Z,51.90
2022-08-14T19:21:38.638Z,52.00
2022-08-14T19:24:29.184Z,52.10
2022-08-14T19:27:19.101Z,52.20
2022-08-14T19:29:47.850Z,52.30
2022-08-14T19:32:36.462Z,52.40
2022-08-14T19:35:17.301Z,52.40
2022-08-14T19:37:52.075Z,52.70
2022-08-14T19:40:41.279Z,52.90
2022-08-14T19:43:22.695Z,53.00
2022-08-14T19:46:39.372Z,53.00
2022-08-14T19:48:57.335Z,53.10
2022-08-14T19:51:32.782Z,53.20
2022-08-14T19:54:13.232Z,53.30
2022-08-14T19:56:45.410Z,53.30
2022-08-14T19:59:19.237Z,53.40
2022-08-14T20:01:51.203Z,53.40
2022-08-14T20:04:46.726Z,53.60
2022-08-14T20:08:00.515Z,53.60
2022-08-14T20:11:06.267Z,53.70
2022-08-14T20:13:32.783Z,53.70
2022-08-14T20:16:21.219Z,53.90
2022-08-14T20:19:09.598Z,53.90
2022-08-14T20:21:37.211Z,54.10
2022-08-14T20:24:30.750Z,54.20
2022-08-14T20:27:33.702Z,54.30
2022-08-14T20:30:33.002Z,54.40
2022-08-14T20:33:02.707Z,54.50
2022-08-14T20:35:38.946Z,54.50
2022-08-14T20:38:31.431Z,54.60
2022-08-14T20:41:06.530Z,54.70
2022-08-14T20:43:55.654Z,54.80
2022-08-14T20:46:38.293Z,54.90
2022-08-14T20:49:19.367Z,55.10
2022-08-14T20:51:59.352Z,55.20
2022-08-14T20:54:34.605Z,55.30
2022-08-14T20:57:17.797Z,55.50
2022-08-14T20:59:57.517Z,55.70
2022-08-14T21:02:46.699Z,55.80
2022-08-14T21:05:33.665Z,55.90
2022-08-14T21:08:08.483Z,56.00
2022-08-14T21:10:44.117Z,56.10
2022-08-14T21:13:27.221Z,56.40
2022-08-14T21:16:05.050Z,56.60
2022-08-14T21:18:57.197Z,57.00
2022-08-14T21:21:40.834Z,57.30
2022-08-14T21:24:38.647Z,57.60
2022-08-14T21:27:04.291Z,57.90
2022-08-14T21:29:53.640Z,58.30
2022-08-14T21:32:35.793Z,58.60
2022-08-14T21:35:08.465Z,58.90
2022-08-14T21:37:43.950Z,59.10
2022-08-14T21:40:31.677Z,59.40
2022-08-14T21:42:59.364Z,59.60
2022-08-14T21:45:26.289Z,59.80
2022-08-14T21:47:53.228Z,60.00
2022-08-14T21:51:00.045Z,60.20
2022-08-14T21:53:09.598Z,60.40
2022-08-14T21:55:37.773Z,60.50
2022-08-14T21:58:53.990Z,60.70
2022-08-14T22:00:54.674Z,60.80
2022-08-14T22:03:24.106Z,60.90
2022-08-14T22:05:55.130Z,60.90
2022-08-14T22:08:26.608Z,60.90
2022-08-14T22:10:55.445Z,61.00
2022-08-14T22:13:26.583Z,61.10
2022-08-14T22:15:59.529Z,61.10
2022-08-14T22:18:29.914Z,61.20
2022-08-14T22:20:57.635Z,61.30
2022-08-14T22:23:26.118Z,61.30
2022-08-14T22:25:55.437Z,61.40
2022-08-14T22:28:32.465Z,61.50
2022-08-14T22:31:03.866Z,61.70
2022-08-14T22:33:38.171Z,61.80
2022-08-14T22:36:26.207Z,62.00
2022-08-14T22:38:54.489Z,62.10
2022-08-14T22:41:26.950Z,62.30
2022-08-14T22:44:12.216Z,62.40
2022-08-14T22:46:43.586Z,62.40
2022-08-14T22:49:16.599Z,62.50
2022-08-14T22:52:02.628Z,62.60
2022-08-14T22:54:52.654Z,62.60
2022-08-14T22:57:20.761Z,62.60
2022-08-14T22:59:50.170Z,62.70
2022-08-14T23:02:30.146Z,62.80
2022-08-14T23:04:58.381Z,62.80
2022-08-14T23:08:59.843Z,62.80
2022-08-14T23:10:32.090Z,63.10
2022-08-14T23:13:01.658Z,63.20
2022-08-14T23:15:30.337Z,63.30
2022-08-14T23:17:58.302Z,63.30
2022-08-14T23:20:29.347Z,63.40
2022-08-14T23:22:57.861Z,63.50
2022-08-14T23:25:45.779Z,63.70
2022-08-14T23:28:33.496Z,63.90
2022-08-14T23:31:12.429Z,64.00
2022-08-14T23:33:46.033Z,64.10
2022-08-14T23:36:31.839Z,64.30
2022-08-14T23:39:10.230Z,64.40
2022-08-14T23:41:47.019Z,64.40
2022-08-14T23:44:21.879Z,64.50
2022-08-14T23:46:52.519Z,64.50
2022-08-14T23:49:25.227Z,64.60
2022-08-14T23:51:59.526Z,64.60
2022-08-14T23:54:48.895Z,64.70
2022-08-14T23:57:19.215Z,64.70
2022-08-14T23:59:54.837Z,64.80
